sensor_id;sensor_type;location;lat;lon;timestamp;pressure;altitude;pressure_sealevel;temperature;humidity
23241;BME280;11789;53.482;9.862;2024-01-15T00:02:14;99396.16;;;-0.04;100.00
23241;BME280;11789;53.482;9.862;2024-01-15T00:04:40;99373.38;;;0.01;100.00
23241;BME280;11789;53.482;9.862;2024-01-15T00:07:06;99386.94;;;0.00;100.00
23241;BME280;11789;53.482;9.862;2024-01-15T00:09:32;99393.75;;;0.04;100.00
23241;BME280;11789;53.482;9.862;2024-01-15T00:11:59;99378.59;;;0.09;100.00
23241;BME280;11789;53.482;9.862;2024-01-15T00:14:24;99362.47;;;0.07;100.00
23241;BME280;11789;53.482;9.862;2024-01-15T00:16:50;99365.84;;;0.06;100.00
23241;BME280;11789;53.482;9.862;2024-01-15T00:19:17;99373.44;;;0.04;100.00
23241;BME280;11789;53.482;9.862;2024-01-15T00:21:43;99359.91;;;0.05;100.00
23241;BME280;11789;53.482;9.862;2024-01-15T00:24:08;99375.09;;;0.04;100.00
23241;BME280;11789;53.482;9.862;2024-01-15T00:26:34;99385.25;;;0.02;100.00
23241;BME280;11789;53.482;9.862;2024-01-15T00:28:59;99377.63;;;0.02;100.00
23241;BME280;11789;53.482;9.862;2024-01-15T00:31:25;99369.94;;;-0.01;100.00
23241;BME280;11789;53.482;9.862;2024-01-15T00:33:50;99368.25;;;-0.01;100.00
23241;BME280;11789;53.482;9.862;2024-01-15T00:36:16;99351.28;;;-0.03;100.00
23241;BME280;11789;53.482;9.862;2024-01-15T00:38:42;99344.50;;;-0.04;100.00
23241;BME280;11789;53.482;9.862;2024-01-15T00:41:07;99345.28;;;-0.08;100.00
23241;BME280;11789;53.482;9.862;2024-01-15T00:43:33;99348.66;;;-0.08;100.00
23241;BME280;11789;53.482;9.862;2024-01-15T00:46:02;99340.19;;;-0.08;100.00
23241;BME280;11789;53.482;9.862;2024-01-15T00:48:27;99337.66;;;-0.08;100.00
23241;BME280;11789;53.482;9.862;2024-01-15T00:50:53;99332.59;;;-0.07;100.00
23241;BME280;11789;53.482;9.862;2024-01-15T00:53:19;99330.91;;;-0.06;100.00
23241;BME280;11789;53.482;9.862;2024-01-15T00:55:47;99324.19;;;-0.04;100.00
23241;BME280;11789;53.482;9.862;2024-01-15T00:58:13;99315.72;;;-0.03;100.00
23241;BME280;11789;53.482;9.862;2024-01-15T01:00:38;99319.97;;;-0.04;100.00
23241;BME280;11789;53.482;9.862;2024-01-15T01:03:04;99315.75;;;-0.02;100.00
23241;BME280;11789;53.482;9.862;2024-01-15T01:05:29;99304.81;;;0.03;100.00
23241;BME280;11789;53.482;9.862;2024-01-15T01:07:55;99301.44;;;0.04;100.00
23241;BME280;11789;53.482;9.862;2024-01-15T01:10:20;99304.88;;;0.06;100.00
23241;BME280;11789;53.482;9.862;2024-01-15T01:12:46;99293.84;;;0.05;100.00
23241;BME280;11789;53.482;9.862;2024-01-15T01:15:11;99294.72;;;0.07;100.00
23241;BME280;11789;53.482;9.862;2024-01-15T01:17:37;99297.34;;;0.10;100.00
23241;BME280;11789;53.482;9.862;2024-01-15T01:20:02;99296.50;;;0.11;100.00
23241;BME280;11789;53.482;9.862;2024-01-15T01:22:29;99288.88;;;0.13;100.00
23241;BME280;11789;53.482;9.862;2024-01-15T01:24:55;99278.72;;;0.14;100.00
23241;BME280;11789;53.482;9.862;2024-01-15T01:27:21;99281.34;;;0.17;100.00
23241;BME280;11789;53.482;9.862;2024-01-15T01:29:46;99283.03;;;0.17;100.00
23241;BME280;11789;53.482;9.862;2024-01-15T01:32:12;99291.50;;;0.17;100.00
23241;BME280;11789;53.482;9.862;2024-01-15T01:34:41;99291.56;;;0.20;100.00
23241;BME280;11789;53.482;9.862;2024-01-15T01:37:08;99275.47;;;0.21;100.00
23241;BME280;11789;53.482;9.862;2024-01-15T01:39:33;99274.56;;;0.19;100.00
23241;BME280;11789;53.482;9.862;2024-01-15T01:41:59;99281.28;;;0.14;100.00
23241;BME280;11789;53.482;9.862;2024-01-15T01:44:24;99271.91;;;0.10;100.00
23241;BME280;11789;53.482;9.862;2024-01-15T01:46:50;99271.84;;;0.06;100.00
23241;BME280;11789;53.482;9.862;2024-01-15T01:49:16;99275.16;;;0.02;100.00
23241;BME280;11789;53.482;9.862;2024-01-15T01:51:42;99277.72;;;0.03;100.00
23241;BME280;11789;53.482;9.862;2024-01-15T01:54:08;99274.31;;;0.03;100.00
23241;BME280;11789;53.482;9.862;2024-01-15T01:56:36;99273.47;;;0.02;100.00
23241;BME280;11789;53.482;9.862;2024-01-15T01:59:03;99274.31;;;0.03;100.00
23241;BME280;11789;53.482;9.862;2024-01-15T02:01:31;99273.47;;;0.02;100.00
23241;BME280;11789;53.482;9.862;2024-01-15T02:03:56;99271.78;;;0.01;100.00
23241;BME280;11789;53.482;9.862;2024-01-15T02:06:23;99265.84;;;0.02;100.00
23241;BME280;11789;53.482;9.862;2024-01-15T02:08:49;99258.22;;;0.02;100.00
23241;BME280;11789;53.482;9.862;2024-01-15T02:11:15;99260.78;;;0.04;100.00
23241;BME280;11789;53.482;9.862;2024-01-15T02:13:40;99250.59;;;0.02;100.00
23241;BME280;11789;53.482;9.862;2024-01-15T02:16:06;99242.97;;;0.01;100.00
23241;BME280;11789;53.482;9.862;2024-01-15T02:18:41;99240.34;;;-0.04;100.00
23241;BME280;11789;53.482;9.862;2024-01-15T02:21:07;99235.34;;;0.01;100.00
23241;BME280;11789;53.482;9.862;2024-01-15T02:23:33;99237.06;;;0.03;100.00
23241;BME280;11789;53.482;9.862;2024-01-15T02:25:58;99244.72;;;0.05;100.00
23241;BME280;11789;53.482;9.862;2024-01-15T02:28:24;99245.59;;;0.05;100.00
23241;BME280;11789;53.482;9.862;2024-01-15T02:30:49;99246.50;;;0.10;100.00
23241;BME280;11789;53.482;9.862;2024-01-15T02:33:24;99251.53;;;0.09;100.00
23241;BME280;11789;53.482;9.862;2024-01-15T02:35:49;99236.28;;;0.06;100.00
23241;BME280;11789;53.482;9.862;2024-01-15T02:38:18;99232.91;;;0.07;100.00
23241;BME280;11789;53.482;9.862;2024-01-15T02:40:44;99233.75;;;0.07;100.00
23241;BME280;11789;53.482;9.862;2024-01-15T02:43:10;99236.28;;;0.07;100.00
23241;BME280;11789;53.482;9.862;2024-01-15T02:45:36;99245.63;;;0.08;100.00
23241;BME280;11789;53.482;9.862;2024-01-15T02:48:02;99247.31;;;0.08;100.00
23241;BME280;11789;53.482;9.862;2024-01-15T02:50:27;99260.06;;;0.11;100.00
23241;BME280;11789;53.482;9.862;2024-01-15T02:52:53;99266.84;;;0.12;100.00
23241;BME280;11789;53.482;9.862;2024-01-15T02:55:18;99248.22;;;0.11;100.00
23241;BME280;11789;53.482;9.862;2024-01-15T02:57:43;99260.84;;;0.07;100.00
23241;BME280;11789;53.482;9.862;2024-01-15T03:00:09;99258.22;;;0.02;100.00
23241;BME280;11789;53.482;9.862;2024-01-15T03:02:37;99265.75;;;-0.04;100.00
23241;BME280;11789;53.482;9.862;2024-01-15T03:05:06;99271.66;;;-0.05;100.00
23241;BME280;11789;53.482;9.862;2024-01-15T03:07:32;99260.59;;;-0.09;100.00
23241;BME280;11789;53.482;9.862;2024-01-15T03:09:57;99256.28;;;-0.14;100.00
23241;BME280;11789;53.482;9.862;2024-01-15T03:12:23;99255.38;;;-0.18;100.00
23241;BME280;11789;53.482;9.862;2024-01-15T03:14:49;99256.22;;;-0.17;100.00
23241;BME280;11789;53.482;9.862;2024-01-15T03:17:14;99279.94;;;-0.15;100.00
23241;BME280;11789;53.482;9.862;2024-01-15T03:19:40;99267.25;;;-0.15;100.00
23241;BME280;11789;53.482;9.862;2024-01-15T03:22:05;99259.69;;;-0.14;100.00
23241;BME280;11789;53.482;9.862;2024-01-15T03:24:33;99261.41;;;-0.11;100.00
23241;BME280;11789;53.482;9.862;2024-01-15T03:26:59;99269.06;;;-0.08;100.00
23241;BME280;11789;53.482;9.862;2024-01-15T03:29:25;99260.69;;;-0.04;100.00
23241;BME280;11789;53.482;9.862;2024-01-15T03:31:51;99264.97;;;0.00;100.00
23241;BME280;11789;53.482;9.862;2024-01-15T03:34:17;99279.41;;;0.04;100.00
23241;BME280;11789;53.482;9.862;2024-01-15T03:36:43;99287.91;;;0.05;100.00
23241;BME280;11789;53.482;9.862;2024-01-15T03:39:08;99292.16;;;0.06;100.00
23241;BME280;11789;53.482;9.862;2024-01-15T03:41:34;99283.66;;;0.04;100.00
23241;BME280;11789;53.482;9.862;2024-01-15T03:43:59;99282.81;;;0.05;100.00
23241;BME280;11789;53.482;9.862;2024-01-15T03:46:25;99287.91;;;0.05;100.00
23241;BME280;11789;53.482;9.862;2024-01-15T03:48:50;99280.25;;;0.03;100.00
23241;BME280;11789;53.482;9.862;2024-01-15T03:51:19;99287.03;;;0.03;100.00
23241;BME280;11789;53.482;9.862;2024-01-15T03:53:45;99284.47;;;0.01;100.00
23241;BME280;11789;53.482;9.862;2024-01-15T03:56:10;99291.19;;;-0.01;100.00
23241;BME280;11789;53.482;9.862;2024-01-15T03:58:36;99285.25;;;-0.03;100.00
23241;BME280;11789;53.482;9.862;2024-01-15T04:01:02;99289.50;;;-0.02;100.00
23241;BME280;11789;53.482;9.862;2024-01-15T04:03:27;99282.72;;;-0.03;100.00
23241;BME280;11789;53.482;9.862;2024-01-15T04:05:52;99286.94;;;-0.02;100.00
23241;BME280;11789;53.482;9.862;2024-01-15T04:08:18;99283.63;;;0.01;100.00
23241;BME280;11789;53.482;9.862;2024-01-15T04:10:43;99274.25;;;-0.01;100.00
23241;BME280;11789;53.482;9.862;2024-01-15T04:13:09;99278.53;;;0.01;100.00
23241;BME280;11789;53.482;9.862;2024-01-15T04:15:34;99281.09;;;0.02;100.00
23241;BME280;11789;53.482;9.862;2024-01-15T04:18:00;99287.03;;;0.04;100.00
23241;BME280;11789;53.482;9.862;2024-01-15T04:20:26;99283.69;;;0.05;100.00
23241;BME280;11789;53.482;9.862;2024-01-15T04:22:52;99284.56;;;0.07;100.00
23241;BME280;11789;53.482;9.862;2024-01-15T04:25:17;99285.41;;;0.06;100.00
23241;BME280;11789;53.482;9.862;2024-01-15T04:27:43;99277.72;;;0.05;100.00
23241;BME280;11789;53.482;9.862;2024-01-15T04:30:08;99287.09;;;0.06;100.00
23241;BME280;11789;53.482;9.862;2024-01-15T04:32:34;99277.78;;;0.06;100.00
23241;BME280;11789;53.482;9.862;2024-01-15T04:34:59;99283.69;;;0.05;100.00
23241;BME280;11789;53.482;9.862;2024-01-15T04:37:25;99285.34;;;0.03;100.00
23241;BME280;11789;53.482;9.862;2024-01-15T04:39:50;99287.88;;;0.03;100.00
23241;BME280;11789;53.482;9.862;2024-01-15T04:42:18;99288.72;;;0.02;100.00
23241;BME280;11789;53.482;9.862;2024-01-15T04:44:43;99289.59;;;0.04;100.00
23241;BME280;11789;53.482;9.862;2024-01-15T04:47:08;99289.59;;;0.04;100.00
23241;BME280;11789;53.482;9.862;2024-01-15T04:49:34;99281.16;;;0.07;100.00
23241;BME280;11789;53.482;9.862;2024-01-15T04:51:59;99278.63;;;0.05;100.00
23241;BME280;11789;53.482;9.862;2024-01-15T04:54:25;99280.28;;;0.05;100.00
23241;BME280;11789;53.482;9.862;2024-01-15T04:56:50;99283.69;;;0.05;100.00
23241;BME280;11789;53.482;9.862;2024-01-15T04:59:15;99276.87;;;0.04;100.00
23241;BME280;11789;53.482;9.862;2024-01-15T05:01:41;99281.16;;;0.05;100.00
23241;BME280;11789;53.482;9.862;2024-01-15T05:04:06;99276.94;;;0.07;100.00
23241;BME280;11789;53.482;9.862;2024-01-15T05:06:32;99282.88;;;0.08;100.00
23241;BME280;11789;53.482;9.862;2024-01-15T05:08:57;99287.97;;;0.09;100.00
23241;BME280;11789;53.482;9.862;2024-01-15T05:11:23;99275.25;;;0.06;100.00
23241;BME280;11789;53.482;9.862;2024-01-15T05:13:48;99281.97;;;0.04;100.00
23241;BME280;11789;53.482;9.862;2024-01-15T05:16:13;99281.97;;;0.04;100.00
23241;BME280;11789;53.482;9.862;2024-01-15T05:18:39;99283.69;;;0.05;100.00
23241;BME280;11789;53.482;9.862;2024-01-15T05:21:04;99280.31;;;0.06;100.00
23241;BME280;11789;53.482;9.862;2024-01-15T05:23:31;99278.66;;;0.08;100.00
23241;BME280;11789;53.482;9.862;2024-01-15T05:25:57;99285.44;;;0.09;100.00
23241;BME280;11789;53.482;9.862;2024-01-15T05:28:22;99279.50;;;0.09;100.00
23241;BME280;11789;53.482;9.862;2024-01-15T05:30:48;99282.94;;;0.11;100.00
23241;BME280;11789;53.482;9.862;2024-01-15T05:33:16;99282.94;;;0.11;100.00
23241;BME280;11789;53.482;9.862;2024-01-15T05:35:41;99281.19;;;0.10;100.00
23241;BME280;11789;53.482;9.862;2024-01-15T05:38:06;99280.41;;;0.12;100.00
23241;BME280;11789;53.482;9.862;2024-01-15T05:40:32;99285.50;;;0.12;100.00
23241;BME280;11789;53.482;9.862;2024-01-15T05:42:57;99295.66;;;0.12;100.00
23241;BME280;11789;53.482;9.862;2024-01-15T05:45:23;99288.88;;;0.13;100.00
23241;BME280;11789;53.482;9.862;2024-01-15T05:47:48;99283.81;;;0.14;100.00
23241;BME280;11789;53.482;9.862;2024-01-15T05:50:14;99277.09;;;0.16;100.00
23241;BME280;11789;53.482;9.862;2024-01-15T05:52:40;99276.19;;;0.14;100.00
23241;BME280;11789;53.482;9.862;2024-01-15T05:55:05;99270.31;;;0.15;100.00
23241;BME280;11789;53.482;9.862;2024-01-15T05:57:31;99269.47;;;0.18;100.00
23241;BME280;11789;53.482;9.862;2024-01-15T05:59:56;99272.94;;;0.23;100.00
23241;BME280;11789;53.482;9.862;2024-01-15T06:02:22;99273.78;;;0.23;100.00
23241;BME280;11789;53.482;9.862;2024-01-15T06:04:47;99292.44;;;0.22;100.00
23241;BME280;11789;53.482;9.862;2024-01-15T06:07:13;99289.03;;;0.20;100.00
23241;BME280;11789;53.482;9.862;2024-01-15T06:09:38;99288.12;;;0.18;100.00
23241;BME280;11789;53.482;9.862;2024-01-15T06:12:05;99291.50;;;0.17;100.00
23241;BME280;11789;53.482;9.862;2024-01-15T06:14:30;99297.44;;;0.19;100.00
23241;BME280;11789;53.482;9.862;2024-01-15T06:16:56;99277.94;;;0.17;100.00
23241;BME280;11789;53.482;9.862;2024-01-15T06:19:21;99292.34;;;0.16;100.00
23241;BME280;11789;53.482;9.862;2024-01-15T06:21:47;99289.75;;;0.15;100.00
23241;BME280;11789;53.482;9.862;2024-01-15T06:24:12;99295.72;;;0.17;100.00
23241;BME280;11789;53.482;9.862;2024-01-15T06:26:38;99298.28;;;0.18;100.00
23241;BME280;11789;53.482;9.862;2024-01-15T06:29:04;99294.03;;;0.17;100.00
23241;BME280;11789;53.482;9.862;2024-01-15T06:31:29;99303.38;;;0.18;100.00
23241;BME280;11789;53.482;9.862;2024-01-15T06:33:55;99306.75;;;0.17;100.00
23241;BME280;11789;53.482;9.862;2024-01-15T06:36:21;99303.34;;;0.17;100.00
23241;BME280;11789;53.482;9.862;2024-01-15T06:38:47;99299.91;;;0.15;100.00
23241;BME280;11789;53.482;9.862;2024-01-15T06:41:12;99305.03;;;0.16;100.00
23241;BME280;11789;53.482;9.862;2024-01-15T06:43:38;99301.66;;;0.17;100.00
23241;BME280;11789;53.482;9.862;2024-01-15T06:46:03;99293.16;;;0.15;100.00
23241;BME280;11789;53.482;9.862;2024-01-15T06:48:28;99297.38;;;0.15;100.00
23241;BME280;11789;53.482;9.862;2024-01-15T06:50:54;99293.97;;;0.14;100.00
23241;BME280;11789;53.482;9.862;2024-01-15T06:53:19;99302.44;;;0.13;100.00
23241;BME280;11789;53.482;9.862;2024-01-15T06:55:45;99300.75;;;0.12;100.00
23241;BME280;11789;53.482;9.862;2024-01-15T06:58:11;99304.06;;;0.10;100.00
23241;BME280;11789;53.482;9.862;2024-01-15T07:00:37;99307.44;;;0.09;100.00
23241;BME280;11789;53.482;9.862;2024-01-15T07:03:03;99309.97;;;0.07;100.00
23241;BME280;11789;53.482;9.862;2024-01-15T07:05:28;99304.03;;;0.07;100.00
23241;BME280;11789;53.482;9.862;2024-01-15T07:07:55;99308.28;;;0.06;100.00
23241;BME280;11789;53.482;9.862;2024-01-15T07:10:20;99312.50;;;0.06;100.00
23241;BME280;11789;53.482;9.862;2024-01-15T07:12:46;99316.72;;;0.05;100.00
23241;BME280;11789;53.482;9.862;2024-01-15T07:15:11;99323.50;;;0.06;100.00
23241;BME280;11789;53.482;9.862;2024-01-15T07:17:37;99328.59;;;0.08;100.00
23241;BME280;11789;53.482;9.862;2024-01-15T07:20:08;99325.22;;;0.07;100.00
23241;BME280;11789;53.482;9.862;2024-01-15T07:22:37;99327.78;;;0.09;100.00
23241;BME280;11789;53.482;9.862;2024-01-15T07:25:04;99326.09;;;0.09;100.00
23241;BME280;11789;53.482;9.862;2024-01-15T07:27:32;99332.91;;;0.10;100.00
23241;BME280;11789;53.482;9.862;2024-01-15T07:29:58;99341.38;;;0.11;100.00
23241;BME280;11789;53.482;9.862;2024-01-15T07:32:24;99345.63;;;0.12;100.00
23241;BME280;11789;53.482;9.862;2024-01-15T07:34:49;99347.31;;;0.11;100.00
23241;BME280;11789;53.482;9.862;2024-01-15T07:37:15;99338.00;;;0.12;100.00
23241;BME280;11789;53.482;9.862;2024-01-15T07:39:40;99343.09;;;0.13;100.00
23241;BME280;11789;53.482;9.862;2024-01-15T07:42:06;99343.09;;;0.13;100.00
23241;BME280;11789;53.482;9.862;2024-01-15T07:44:32;99335.47;;;0.13;100.00
23241;BME280;11789;53.482;9.862;2024-01-15T07:46:58;99329.56;;;0.14;100.00
23241;BME280;11789;53.482;9.862;2024-01-15T07:49:23;99327.91;;;0.16;100.00
23241;BME280;11789;53.482;9.862;2024-01-15T07:51:49;99335.53;;;0.16;100.00
23241;BME280;11789;53.482;9.862;2024-01-15T07:54:15;99334.69;;;0.17;100.00
23241;BME280;11789;53.482;9.862;2024-01-15T07:56:56;99345.72;;;0.18;100.00
23241;BME280;11789;53.482;9.862;2024-01-15T07:59:23;99343.16;;;0.16;100.00
23241;BME280;11789;53.482;9.862;2024-01-15T08:01:49;99349.06;;;0.15;100.00
23241;BME280;11789;53.482;9.862;2024-01-15T08:04:14;99346.53;;;0.15;100.00
23241;BME280;11789;53.482;9.862;2024-01-15T08:06:39;99349.06;;;0.15;100.00
23241;BME280;11789;53.482;9.862;2024-01-15T08:09:05;99353.28;;;0.15;100.00
23241;BME280;11789;53.482;9.862;2024-01-15T08:11:31;99355.81;;;0.15;100.00
23241;BME280;11789;53.482;9.862;2024-01-15T08:13:56;99359.25;;;0.17;100.00
23241;BME280;11789;53.482;9.862;2024-01-15T08:16:21;99366.03;;;0.16;100.00
23241;BME280;11789;53.482;9.862;2024-01-15T08:18:47;99365.19;;;0.16;100.00
23241;BME280;11789;53.482;9.862;2024-01-15T08:21:13;99361.72;;;0.14;100.00
23241;BME280;11789;53.482;9.862;2024-01-15T08:23:38;99357.50;;;0.13;100.00
23241;BME280;11789;53.482;9.862;2024-01-15T08:26:04;99360.87;;;0.13;100.00
23241;BME280;11789;53.482;9.862;2024-01-15T08:28:30;99361.69;;;0.11;100.00
23241;BME280;11789;53.482;9.862;2024-01-15T08:30:56;99351.50;;;0.09;100.00
23241;BME280;11789;53.482;9.862;2024-01-15T08:33:21;99358.31;;;0.10;100.00
23241;BME280;11789;53.482;9.862;2024-01-15T08:35:47;99361.69;;;0.11;100.00
23241;BME280;11789;53.482;9.862;2024-01-15T08:38:13;99372.66;;;0.10;100.00
23241;BME280;11789;53.482;9.862;2024-01-15T08:40:38;99374.31;;;0.06;100.00
23241;BME280;11789;53.482;9.862;2024-01-15T08:43:04;99384.41;;;0.02;100.00
23241;BME280;11789;53.482;9.862;2024-01-15T08:45:29;99380.16;;;0.01;100.00
23241;BME280;11789;53.482;9.862;2024-01-15T08:47:55;99378.41;;;-0.02;100.00
23241;BME280;11789;53.482;9.862;2024-01-15T08:50:20;99386.09;;;0.01;100.00
23241;BME280;11789;53.482;9.862;2024-01-15T08:52:46;99386.94;;;0.02;100.00
23241;BME280;11789;53.482;9.862;2024-01-15T08:55:12;99388.66;;;0.04;100.00
23241;BME280;11789;53.482;9.862;2024-01-15T08:57:38;99382.72;;;0.04;100.00
23241;BME280;11789;53.482;9.862;2024-01-15T09:00:04;99384.44;;;0.05;100.00
23241;BME280;11789;53.482;9.862;2024-01-15T09:02:34;99384.44;;;0.05;100.00
23241;BME280;11789;53.482;9.862;2024-01-15T09:04:59;99377.66;;;0.04;100.00
23241;BME280;11789;53.482;9.862;2024-01-15T09:07:25;99393.75;;;0.04;100.00
23241;BME280;11789;53.482;9.862;2024-01-15T09:09:52;99377.75;;;0.10;100.00
23241;BME280;11789;53.482;9.862;2024-01-15T09:12:17;99373.50;;;0.07;100.00
23241;BME280;11789;53.482;9.862;2024-01-15T09:14:44;99387.12;;;0.12;100.00
23241;BME280;11789;53.482;9.862;2024-01-15T09:17:09;99385.47;;;0.14;100.00
23241;BME280;11789;53.482;9.862;2024-01-15T09:19:34;99382.13;;;0.17;100.00
23241;BME280;11789;53.482;9.862;2024-01-15T09:22:00;99381.31;;;0.19;100.00
23241;BME280;11789;53.482;9.862;2024-01-15T09:24:25;99385.69;;;0.27;100.00
23241;BME280;11789;53.482;9.862;2024-01-15T09:26:51;99382.31;;;0.29;100.00
23241;BME280;11789;53.482;9.862;2024-01-15T09:29:16;99390.87;;;0.33;100.00
23241;BME280;11789;53.482;9.862;2024-01-15T09:31:43;99394.25;;;0.32;100.00
23241;BME280;11789;53.482;9.862;2024-01-15T09:34:09;99398.44;;;0.30;100.00
23241;BME280;11789;53.482;9.862;2024-01-15T09:36:41;99405.19;;;0.29;100.00
23241;BME280;11789;53.482;9.862;2024-01-15T09:39:09;99394.94;;;0.24;100.00
23241;BME280;11789;53.482;9.862;2024-01-15T09:41:39;99387.25;;;0.20;100.00
23241;BME280;11789;53.482;9.862;2024-01-15T09:44:05;99392.28;;;0.15;100.00
23241;BME280;11789;53.482;9.862;2024-01-15T09:46:33;99408.31;;;0.13;100.00
23241;BME280;11789;53.482;9.862;2024-01-15T09:48:59;99411.78;;;0.16;100.00
23241;BME280;11789;53.482;9.862;2024-01-15T09:51:25;99397.47;;;0.21;100.00
23241;BME280;11789;53.482;9.862;2024-01-15T09:53:50;99410.25;;;0.26;100.00
23241;BME280;11789;53.482;9.862;2024-01-15T09:56:17;99407.72;;;0.28;100.00
23241;BME280;11789;53.482;9.862;2024-01-15T09:58:42;99424.69;;;0.29;100.00
23241;BME280;11789;53.482;9.862;2024-01-15T10:01:08;99418.84;;;0.34;100.00
23241;BME280;11789;53.482;9.862;2024-01-15T10:03:35;99425.69;;;0.38;100.00
23241;BME280;11789;53.482;9.862;2024-01-15T10:06:01;99424.84;;;0.39;100.00
23241;BME280;11789;53.482;9.862;2024-01-15T10:08:27;99425.72;;;0.40;100.00
23241;BME280;11789;53.482;9.862;2024-01-15T10:10:53;99429.06;;;0.36;100.00
23241;BME280;11789;53.482;9.862;2024-01-15T10:13:19;99436.72;;;0.40;100.00
23241;BME280;11789;53.482;9.862;2024-01-15T10:15:45;99451.06;;;0.35;100.00
23241;BME280;11789;53.482;9.862;2024-01-15T10:18:12;99451.84;;;0.31;100.00
23241;BME280;11789;53.482;9.862;2024-01-15T10:20:39;99452.63;;;0.29;100.00
23241;BME280;11789;53.482;9.862;2024-01-15T10:23:05;99445.81;;;0.26;100.00
23241;BME280;11789;53.482;9.862;2024-01-15T10:25:30;99464.38;;;0.22;100.00
23241;BME280;11789;53.482;9.862;2024-01-15T10:28:03;99466.87;;;0.19;100.00
23241;BME280;11789;53.482;9.862;2024-01-15T10:30:30;99467.63;;;0.15;100.00
23241;BME280;11789;53.482;9.862;2024-01-15T10:33:02;99475.22;;;0.12;100.00
23241;BME280;11789;53.482;9.862;2024-01-15T10:35:34;99487.91;;;0.12;100.00
23241;BME280;11789;53.482;9.862;2024-01-15T10:38:00;99481.06;;;0.08;100.00
23241;BME280;11789;53.482;9.862;2024-01-15T10:40:27;99488.53;;;0.00;100.00
23241;BME280;11789;53.482;9.862;2024-01-15T10:42:52;99482.53;;;-0.04;100.00
23241;BME280;11789;53.482;9.862;2024-01-15T10:45:18;99486.69;;;-0.07;100.00
23241;BME280;11789;53.482;9.862;2024-01-15T10:47:44;99475.69;;;-0.08;100.00
23241;BME280;11789;53.482;9.862;2024-01-15T10:50:10;99488.41;;;-0.06;100.00
23241;BME280;11789;53.482;9.862;2024-01-15T10:52:37;99495.12;;;-0.10;100.00
23241;BME280;11789;53.482;9.862;2024-01-15T10:55:04;99486.59;;;-0.12;100.00
23241;BME280;11789;53.482;9.862;2024-01-15T10:57:30;99488.28;;;-0.12;100.00
23241;BME280;11789;53.482;9.862;2024-01-15T10:59:56;99487.50;;;-0.10;100.00
23241;BME280;11789;53.482;9.862;2024-01-15T11:02:21;99487.56;;;-0.07;100.00
23241;BME280;11789;53.482;9.862;2024-01-15T11:04:47;99485.84;;;-0.08;100.00
23241;BME280;11789;53.482;9.862;2024-01-15T11:07:13;99494.25;;;-0.10;100.00
23241;BME280;11789;53.482;9.862;2024-01-15T11:09:39;99503.50;;;-0.14;100.00
23241;BME280;11789;53.482;9.862;2024-01-15T11:12:11;99494.09;;;-0.18;100.00
23241;BME280;11789;53.482;9.862;2024-01-15T11:14:41;99492.41;;;-0.19;100.00
23241;BME280;11789;53.482;9.862;2024-01-15T11:17:10;99491.47;;;-0.22;100.00
23241;BME280;11789;53.482;9.862;2024-01-15T11:19:46;99496.47;;;-0.26;100.00
23241;BME280;11789;53.482;9.862;2024-01-15T11:25:22;99481.94;;;-0.34;100.00
23241;BME280;11789;53.482;9.862;2024-01-15T11:27:50;99485.22;;;-0.38;100.00
23241;BME280;11789;53.482;9.862;2024-01-15T11:30:17;99487.75;;;-0.38;100.00
23241;BME280;11789;53.482;9.862;2024-01-15T11:32:43;99488.63;;;-0.38;100.00
23241;BME280;11789;53.482;9.862;2024-01-15T11:35:09;99492.00;;;-0.39;100.00
23241;BME280;11789;53.482;9.862;2024-01-15T11:40:45;99493.66;;;-0.39;100.00
23241;BME280;11789;53.482;9.862;2024-01-15T11:43:13;99496.22;;;-0.38;100.00
23241;BME280;11789;53.482;9.862;2024-01-15T11:45:40;99492.00;;;-0.37;100.00
23241;BME280;11789;53.482;9.862;2024-01-15T11:50:45;99500.53;;;-0.35;100.00
23241;BME280;11789;53.482;9.862;2024-01-15T11:53:27;99497.16;;;-0.34;100.00
23241;BME280;11789;53.482;9.862;2024-01-15T11:55:58;99505.63;;;-0.34;100.00
23241;BME280;11789;53.482;9.862;2024-01-15T11:58:25;99516.66;;;-0.33;100.00
23241;BME280;11789;53.482;9.862;2024-01-15T12:00:51;99518.25;;;-0.37;100.00
23241;BME280;11789;53.482;9.862;2024-01-15T12:03:20;99507.97;;;-0.43;100.00
23241;BME280;11789;53.482;9.862;2024-01-15T12:05:46;99510.44;;;-0.46;100.00
23241;BME280;11789;53.482;9.862;2024-01-15T12:08:11;99511.25;;;-0.47;100.00
23241;BME280;11789;53.482;9.862;2024-01-15T12:10:38;99501.09;;;-0.47;100.00
23241;BME280;11789;53.482;9.862;2024-01-15T12:13:14;99512.09;;;-0.48;100.00
23241;BME280;11789;53.482;9.862;2024-01-15T12:15:41;99522.25;;;-0.48;100.00
23241;BME280;11789;53.482;9.862;2024-01-15T12:18:09;99515.47;;;-0.49;100.00
23241;BME280;11789;53.482;9.862;2024-01-15T12:20:35;99512.09;;;-0.48;100.00
23241;BME280;11789;53.482;9.862;2024-01-15T12:23:01;99518.84;;;-0.48;100.00
23241;BME280;11789;53.482;9.862;2024-01-15T12:25:29;99520.56;;;-0.47;100.00
23241;BME280;11789;53.482;9.862;2024-01-15T12:27:55;99523.13;;;-0.46;100.00
23241;BME280;11789;53.482;9.862;2024-01-15T12:30:21;99524.91;;;-0.42;100.00
23241;BME280;11789;53.482;9.862;2024-01-15T12:32:47;99532.59;;;-0.40;100.00
23241;BME280;11789;53.482;9.862;2024-01-15T12:35:13;99537.59;;;-0.42;100.00
23241;BME280;11789;53.482;9.862;2024-01-15T12:37:40;99547.00;;;-0.38;100.00
23241;BME280;11789;53.482;9.862;2024-01-15T12:40:07;99541.94;;;-0.38;100.00
23241;BME280;11789;53.482;9.862;2024-01-15T12:42:33;99546.25;;;-0.35;100.00
23241;BME280;11789;53.482;9.862;2024-01-15T12:45:03;99539.41;;;-0.38;100.00
23241;BME280;11789;53.482;9.862;2024-01-15T12:47:30;99550.44;;;-0.36;100.00
23241;BME280;11789;53.482;9.862;2024-01-15T12:49:57;99556.41;;;-0.34;100.00
23241;BME280;11789;53.482;9.862;2024-01-15T12:52:27;99556.44;;;-0.32;100.00
23241;BME280;11789;53.482;9.862;2024-01-15T12:54:52;99559.00;;;-0.31;100.00
23241;BME280;11789;53.482;9.862;2024-01-15T12:57:18;99559.87;;;-0.30;100.00
23241;BME280;11789;53.482;9.862;2024-01-15T12:59:44;99561.53;;;-0.32;100.00
23241;BME280;11789;53.482;9.862;2024-01-15T13:02:13;99556.47;;;-0.31;100.00